Time;durP1;ratioP1;P1;durP2;ratioP2;P2;SDS_P1;SDS_P2;PMS_P1;PMS_P2;Temp;Humidity;BMP_temperature;BMP_pressure;BME280_temperature;BME280_humidity;BME280_pressure;Samples;Min_cycle;Max_cycle;Signal;HPM_P1;HPM_P2
2023/12/31 00:00:55;;;;;;;4.50;1.60;;;10.40;99.90;;;;;;7289008;19;20208;-84
2023/12/31 00:03:21;;;;;;;7.53;1.50;;;10.40;99.90;;;;;;7289284;19;20726;-84
2023/12/31 00:05:47;;;;;;;5.97;1.60;;;10.30;99.90;;;;;;7287855;19;20211;-84
2023/12/31 00:08:14;;;;;;;4.77;1.50;;;10.30;99.90;;;;;;7288285;19;20247;-84
2023/12/31 00:10:40;;;;;;;5.77;1.70;;;10.30;99.90;;;;;;7288992;19;20217;-84
2023/12/31 00:13:06;;;;;;;5.13;1.80;;;10.30;99.90;;;;;;7288995;19;20537;-84
2023/12/31 00:15:32;;;;;;;4.30;1.37;;;10.30;99.90;;;;;;7288030;19;20228;-83
2023/12/31 00:17:58;;;;;;;7.27;1.70;;;10.30;99.90;;;;;;7311231;19;20246;-84
2023/12/31 00:20:23;;;;;;;4.37;1.53;;;10.30;99.90;;;;;;7288755;19;20191;-84
2023/12/31 00:22:49;;;;;;;2.93;1.40;;;10.30;99.90;;;;;;7285943;19;20936;-84
2023/12/31 00:25:16;;;;;;;6.33;1.63;;;10.20;99.90;;;;;;7288910;19;20194;-84
2023/12/31 00:27:42;;;;;;;4.57;1.60;;;10.30;99.90;;;;;;7285697;19;20263;-84
2023/12/31 00:30:08;;;;;;;3.83;1.37;;;10.20;99.90;;;;;;7287731;19;20313;-83
2023/12/31 00:32:34;;;;;;;8.73;2.30;;;10.20;99.90;;;;;;7286970;19;20195;-84
2023/12/31 00:35:00;;;;;;;4.63;1.57;;;10.20;99.90;;;;;;7299482;19;20210;-83
2023/12/31 00:37:27;;;;;;;4.80;1.40;;;10.20;99.90;;;;;;7309707;19;20682;-84
2023/12/31 00:39:53;;;;;;;3.93;1.23;;;10.20;99.90;;;;;;7285168;19;20220;-84
2023/12/31 00:42:19;;;;;;;4.10;1.50;;;10.20;99.90;;;;;;7287129;19;20281;-84
2023/12/31 00:44:44;;;;;;;8.00;1.60;;;10.20;99.90;;;;;;7286679;19;20197;-84
2023/12/31 00:47:10;;;;;;;5.53;1.60;;;10.30;99.90;;;;;;7287185;19;20222;-84
2023/12/31 00:49:36;;;;;;;3.10;1.53;;;10.40;99.90;;;;;;7284175;19;20196;-83
2023/12/31 00:52:02;;;;;;;5.50;1.57;;;10.40;99.90;;;;;;7286944;19;20254;-84
2023/12/31 00:54:28;;;;;;;3.43;1.53;;;10.40;99.90;;;;;;7309832;19;20203;-84
2023/12/31 00:56:53;;;;;;;3.67;1.30;;;10.30;99.90;;;;;;7289044;19;20671;-82
2023/12/31 00:59:19;;;;;;;5.70;1.70;;;10.40;99.90;;;;;;7400281;19;20231;-83
2023/12/31 01:01:45;;;;;;;5.53;1.60;;;10.40;99.90;;;;;;7398182;19;20147;-83
2023/12/31 01:04:11;;;;;;;4.00;1.70;;;10.40;99.90;;;;;;7287620;19;20194;-82
2023/12/31 01:06:37;;;;;;;6.70;2.00;;;10.40;99.90;;;;;;7288957;19;20572;-82
2023/12/31 01:09:04;;;;;;;4.03;1.60;;;10.50;99.90;;;;;;7286981;19;20190;-84
2023/12/31 01:11:30;;;;;;;4.90;1.53;;;10.40;99.90;;;;;;7310466;19;20190;-82
2023/12/31 01:13:56;;;;;;;5.27;1.53;;;10.40;99.90;;;;;;7298083;19;20199;-83
2023/12/31 01:16:21;;;;;;;4.97;1.50;;;10.40;99.90;;;;;;7286680;19;20600;-83
2023/12/31 01:18:47;;;;;;;5.63;1.80;;;10.50;99.90;;;;;;7287653;19;20638;-83
2023/12/31 01:21:13;;;;;;;4.80;1.50;;;10.50;99.90;;;;;;7287084;19;20255;-84
2023/12/31 01:23:39;;;;;;;2.83;1.30;;;10.50;99.90;;;;;;7287032;19;20188;-84
2023/12/31 01:26:05;;;;;;;7.13;1.50;;;10.50;99.90;;;;;;7274372;19;20230;-83
2023/12/31 01:28:30;;;;;;;3.80;1.50;;;10.50;99.90;;;;;;7299766;19;20198;-83
2023/12/31 01:30:56;;;;;;;3.47;1.57;;;10.50;99.90;;;;;;7300027;19;20202;-83
2023/12/31 01:33:23;;;;;;;4.17;1.60;;;10.50;99.90;;;;;;7286895;19;20235;-83
2023/12/31 01:35:49;;;;;;;3.77;1.43;;;10.50;99.90;;;;;;7286308;19;20193;-83
2023/12/31 01:38:15;;;;;;;3.17;1.60;;;10.50;99.90;;;;;;7286512;19;20204;-82
2023/12/31 01:40:51;;;;;;;5.13;1.83;;;10.60;99.90;;;;;;7287074;19;20194;-82
2023/12/31 01:43:19;;;;;;;3.93;1.80;;;10.60;99.90;;;;;;7286715;19;20216;-83
2023/12/31 01:45:45;;;;;;;4.23;1.67;;;10.60;99.90;;;;;;7284627;19;20563;-84
2023/12/31 01:48:11;;;;;;;6.00;1.97;;;10.50;99.90;;;;;;7285788;19;20186;-83
2023/12/31 01:50:37;;;;;;;4.07;1.50;;;10.50;99.90;;;;;;7285986;19;20258;-83
2023/12/31 01:53:04;;;;;;;5.73;1.80;;;10.60;99.90;;;;;;7285754;19;20198;-83
2023/12/31 01:55:30;;;;;;;6.27;1.70;;;10.60;99.90;;;;;;7304471;19;20184;-82
2023/12/31 01:57:56;;;;;;;4.90;1.87;;;10.60;99.90;;;;;;7295074;19;20579;-84
2023/12/31 02:00:22;;;;;;;5.03;1.77;;;10.60;99.90;;;;;;7287529;19;20319;-83
2023/12/31 02:02:54;;;;;;;4.17;1.83;;;10.60;99.90;;;;;;7284234;19;20190;-83
2023/12/31 02:05:20;;;;;;;4.10;1.80;;;10.70;99.90;;;;;;7286289;19;20266;-83
2023/12/31 02:07:47;;;;;;;5.63;1.80;;;10.60;99.90;;;;;;7286260;19;20245;-83
2023/12/31 02:10:14;;;;;;;4.67;1.50;;;10.60;99.90;;;;;;7283703;19;20212;-83
2023/12/31 02:12:41;;;;;;;4.87;1.60;;;10.60;99.90;;;;;;7280566;19;20241;-84
2023/12/31 02:15:08;;;;;;;4.77;1.87;;;10.60;99.90;;;;;;7285239;19;20188;-84
2023/12/31 02:17:34;;;;;;;3.63;1.53;;;10.60;99.90;;;;;;7287772;19;20196;-83
2023/12/31 02:19:59;;;;;;;4.30;1.50;;;10.60;99.90;;;;;;7305944;19;20196;-83
2023/12/31 02:22:26;;;;;;;5.13;1.70;;;10.60;99.90;;;;;;7285472;19;20196;-84
2023/12/31 02:24:55;;;;;;;3.40;1.60;;;10.60;99.90;;;;;;7287354;19;20195;-85
2023/12/31 02:27:21;;;;;;;4.70;1.60;;;10.70;99.90;;;;;;7289077;19;20666;-84
2023/12/31 02:29:56;;;;;;;5.27;1.97;;;10.70;99.90;;;;;;7284484;19;20206;-84
2023/12/31 02:32:22;;;;;;;4.10;1.60;;;10.70;99.90;;;;;;7290437;19;20266;-83
2023/12/31 02:34:50;;;;;;;3.77;1.60;;;10.70;99.90;;;;;;7284302;19;20229;-83
2023/12/31 02:37:16;;;;;;;3.90;1.80;;;10.70;99.90;;;;;;7287435;19;20199;-83
2023/12/31 02:39:44;;;;;;;5.93;1.67;;;10.60;99.90;;;;;;7288345;19;20205;-83
2023/12/31 02:42:09;;;;;;;4.40;1.70;;;10.60;99.90;;;;;;7283310;19;20580;-83
2023/12/31 02:44:35;;;;;;;4.87;1.63;;;10.70;99.90;;;;;;7285375;19;20194;-83
2023/12/31 02:47:04;;;;;;;3.10;1.53;;;10.70;99.90;;;;;;7295239;19;20183;-83
2023/12/31 02:49:33;;;;;;;5.63;1.80;;;10.60;99.90;;;;;;7303228;19;20602;-83
2023/12/31 02:51:59;;;;;;;4.20;1.67;;;10.60;99.90;;;;;;7312799;19;20194;-83
2023/12/31 02:54:25;;;;;;;3.17;1.57;;;10.60;99.90;;;;;;7288900;19;20543;-83
2023/12/31 02:56:51;;;;;;;4.57;1.57;;;10.50;99.90;;;;;;7288256;19;20193;-83
2023/12/31 02:59:19;;;;;;;4.20;1.83;;;10.60;99.90;;;;;;7281869;19;20570;-83
2023/12/31 03:01:45;;;;;;;4.23;1.73;;;10.50;99.90;;;;;;7284010;19;20182;-84
2023/12/31 03:04:13;;;;;;;3.63;1.60;;;10.50;99.90;;;;;;7286292;19;20683;-84
2023/12/31 03:06:39;;;;;;;4.70;1.60;;;10.60;99.90;;;;;;7287793;19;20256;-83
2023/12/31 03:09:09;;;;;;;3.53;1.73;;;10.50;99.90;;;;;;7288447;19;20190;-82
2023/12/31 03:11:36;;;;;;;3.30;1.33;;;10.50;99.90;;;;;;7290756;19;20202;-83
2023/12/31 03:14:07;;;;;;;3.97;1.57;;;10.60;99.90;;;;;;7292858;19;20230;-84
2023/12/31 03:16:36;;;;;;;4.90;1.67;;;10.60;99.90;;;;;;7291261;19;20196;-84
2023/12/31 03:19:02;;;;;;;5.20;1.80;;;10.70;99.90;;;;;;7290897;19;20270;-83
2023/12/31 03:21:31;;;;;;;3.63;1.80;;;10.60;99.90;;;;;;7307880;19;20208;-83
2023/12/31 03:23:57;;;;;;;3.30;1.30;;;10.70;99.90;;;;;;7291016;19;20655;-82
2023/12/31 03:26:32;;;;;;;6.13;2.20;;;10.70;99.90;;;;;;7286016;19;20212;-82
2023/12/31 03:29:05;;;;;;;5.20;1.80;;;10.70;99.90;;;;;;7291152;19;20198;-84
2023/12/31 03:31:30;;;;;;;4.03;1.60;;;10.80;99.90;;;;;;7283952;19;20291;-82
2023/12/31 03:33:56;;;;;;;3.73;1.60;;;10.80;99.90;;;;;;7299038;19;20179;-82
2023/12/31 03:36:24;;;;;;;5.37;1.90;;;10.80;99.90;;;;;;7282363;19;20196;-83
2023/12/31 03:38:50;;;;;;;4.23;2.03;;;10.90;99.90;;;;;;7285269;19;20194;-83
2023/12/31 03:41:16;;;;;;;4.70;2.27;;;10.90;99.90;;;;;;7288304;19;20194;-83
2023/12/31 03:43:42;;;;;;;3.23;1.70;;;10.80;99.90;;;;;;7285914;19;20195;-83
2023/12/31 03:46:08;;;;;;;4.90;2.00;;;10.80;99.90;;;;;;7284298;19;20186;-83
2023/12/31 03:48:34;;;;;;;5.13;1.80;;;10.90;99.90;;;;;;7282387;19;20225;-83
2023/12/31 03:51:00;;;;;;;3.70;1.80;;;10.80;99.90;;;;;;7292865;19;20189;-83
2023/12/31 03:53:25;;;;;;;6.30;2.10;;;10.90;99.90;;;;;;7288501;19;20292;-84
2023/12/31 03:55:51;;;;;;;5.47;2.20;;;10.90;99.90;;;;;;7283372;19;20184;-84
2023/12/31 03:58:17;;;;;;;7.33;2.40;;;10.80;99.90;;;;;;7286237;19;20200;-84
2023/12/31 04:00:48;;;;;;;3.77;1.93;;;10.80;99.90;;;;;;7289478;19;20628;-84
2023/12/31 04:03:14;;;;;;;4.43;2.07;;;10.90;99.90;;;;;;7290332;19;20231;-83
2023/12/31 04:05:42;;;;;;;5.37;2.07;;;10.90;99.90;;;;;;7288172;19;20518;-82
2023/12/31 04:08:08;;;;;;;5.67;2.00;;;10.90;99.90;;;;;;7284535;19;20695;-83
2023/12/31 04:10:39;;;;;;;4.23;1.87;;;11.00;99.90;;;;;;7285943;19;20201;-82
2023/12/31 04:13:05;;;;;;;4.50;2.00;;;11.10;99.90;;;;;;7292789;19;20713;-83
2023/12/31 04:15:31;;;;;;;4.90;2.23;;;11.10;99.90;;;;;;7302128;19;20262;-82
2023/12/31 04:17:57;;;;;;;3.40;2.20;;;11.10;99.90;;;;;;7314663;19;20191;-83
2023/12/31 04:20:22;;;;;;;4.23;2.30;;;11.20;99.90;;;;;;7290036;19;20280;-82
2023/12/31 04:22:48;;;;;;;6.37;2.30;;;11.10;99.90;;;;;;7289538;19;20188;-83
2023/12/31 04:25:14;;;;;;;4.43;1.90;;;11.10;99.90;;;;;;7290899;19;20191;-83
2023/12/31 04:27:44;;;;;;;7.33;2.37;;;11.10;99.90;;;;;;7295607;19;20189;-84
2023/12/31 04:30:12;;;;;;;3.90;2.00;;;11.20;99.90;;;;;;7295278;19;20193;-84
2023/12/31 04:32:38;;;;;;;4.23;2.20;;;11.20;99.90;;;;;;7297932;19;20195;-84
2023/12/31 04:35:24;;;;;;;3.90;2.10;;;11.20;99.90;;;;;;7297888;19;20201;-83
2023/12/31 04:37:53;;;;;;;5.47;2.17;;;11.10;99.90;;;;;;7298495;19;20193;-83
2023/12/31 04:40:22;;;;;;;4.57;2.00;;;11.20;99.90;;;;;;7295030;19;20195;-84
2023/12/31 04:42:51;;;;;;;5.17;2.20;;;11.10;99.90;;;;;;7287016;19;20197;-83
2023/12/31 04:45:16;;;;;;;4.13;2.00;;;11.10;99.90;;;;;;7301263;19;20639;-83
2023/12/31 04:47:48;;;;;;;3.93;1.87;;;11.10;99.90;;;;;;7296315;19;20202;-83
2023/12/31 04:50:17;;;;;;;3.43;1.87;;;11.10;99.90;;;;;;7299607;19;20263;-83
2023/12/31 04:52:55;;;;;;;5.57;2.00;;;11.10;99.90;;;;;;7302772;19;20221;-83
2023/12/31 04:55:22;;;;;;;4.37;1.97;;;11.10;99.90;;;;;;7298937;19;20215;-84
2023/12/31 04:57:49;;;;;;;3.43;1.90;;;11.10;99.90;;;;;;7299430;19;20196;-83
2023/12/31 05:00:18;;;;;;;4.93;1.97;;;11.10;99.90;;;;;;7296949;19;20218;-83
2023/12/31 05:02:44;;;;;;;5.20;2.20;;;11.10;99.90;;;;;;7298574;19;20210;-84
2023/12/31 05:05:10;;;;;;;5.10;2.00;;;11.10;99.90;;;;;;7297690;19;20184;-83
2023/12/31 05:07:35;;;;;;;4.63;2.00;;;11.10;99.90;;;;;;7298537;19;20286;-83
2023/12/31 05:10:07;;;;;;;5.30;1.93;;;11.10;99.90;;;;;;7303465;19;20222;-83
2023/12/31 05:12:34;;;;;;;4.97;1.90;;;11.10;99.90;;;;;;7299445;19;20212;-85
2023/12/31 05:14:59;;;;;;;5.07;1.90;;;11.10;99.90;;;;;;7320456;19;20646;-84
2023/12/31 05:17:26;;;;;;;3.97;1.80;;;11.10;99.90;;;;;;7297412;19;20656;-84
2023/12/31 05:19:57;;;;;;;4.77;1.80;;;11.20;99.90;;;;;;7297752;19;20185;-84
2023/12/31 05:22:23;;;;;;;3.93;1.77;;;11.20;99.90;;;;;;7294552;19;20206;-84
2023/12/31 05:24:51;;;;;;;3.50;1.67;;;11.20;99.90;;;;;;7297314;19;20255;-84
2023/12/31 05:27:19;;;;;;;4.23;1.67;;;11.30;99.90;;;;;;7291756;19;20195;-83
2023/12/31 05:29:49;;;;;;;3.30;1.67;;;11.40;99.90;;;;;;7292071;19;20195;-83
2023/12/31 05:32:18;;;;;;;4.43;1.57;;;11.40;99.90;;;;;;7287110;19;20682;-84
2023/12/31 05:34:43;;;;;;;3.67;1.73;;;11.50;99.90;;;;;;7279349;19;20185;-83
2023/12/31 05:37:09;;;;;;;5.03;1.87;;;11.50;99.90;;;;;;7286992;19;20647;-83
2023/12/31 05:39:35;;;;;;;3.93;1.87;;;11.70;99.90;;;;;;7290336;19;20284;-82
2023/12/31 05:42:01;;;;;;;3.60;1.60;;;11.70;99.90;;;;;;7308207;19;20191;-83
2023/12/31 05:44:30;;;;;;;4.13;1.93;;;11.60;99.90;;;;;;7307116;19;20188;-83
2023/12/31 05:46:58;;;;;;;5.57;1.80;;;11.60;99.90;;;;;;7294865;19;20187;-85
2023/12/31 05:49:25;;;;;;;3.77;1.70;;;11.70;99.90;;;;;;7289376;19;20200;-83
2023/12/31 05:51:51;;;;;;;4.07;1.80;;;11.70;99.90;;;;;;7292205;19;21017;-84
2023/12/31 05:54:25;;;;;;;3.43;1.60;;;11.70;99.90;;;;;;7291690;19;20209;-84
2023/12/31 05:56:54;;;;;;;3.53;1.70;;;11.70;99.90;;;;;;7291513;19;20191;-84
2023/12/31 05:59:19;;;;;;;3.50;1.67;;;11.70;99.90;;;;;;7291248;19;20221;-83
2023/12/31 06:01:45;;;;;;;4.33;2.00;;;11.80;99.90;;;;;;7286721;19;20181;-84
2023/12/31 06:04:11;;;;;;;3.53;1.70;;;11.80;99.90;;;;;;7287545;19;20214;-84
2023/12/31 06:06:37;;;;;;;5.13;1.80;;;11.80;99.90;;;;;;7290752;19;20191;-84
2023/12/31 06:09:05;;;;;;;2.93;1.50;;;11.80;99.90;;;;;;7289141;19;20189;-83
2023/12/31 06:11:38;;;;;;;3.87;1.60;;;11.80;99.90;;;;;;7299685;19;20185;-84
2023/12/31 06:14:07;;;;;;;3.53;1.90;;;11.80;99.90;;;;;;7286498;19;20185;-82
2023/12/31 06:16:33;;;;;;;3.20;1.60;;;11.60;99.90;;;;;;7280200;19;20188;-83
2023/12/31 06:19:00;;;;;;;7.00;2.07;;;11.60;99.90;;;;;;7310296;19;20740;-84
2023/12/31 06:21:29;;;;;;;4.13;2.00;;;11.60;99.90;;;;;;7288405;19;20187;-84
2023/12/31 06:23:58;;;;;;;3.80;1.70;;;11.60;99.90;;;;;;7285663;19;20213;-84
2023/12/31 06:26:23;;;;;;;3.70;1.53;;;11.70;99.90;;;;;;7289641;19;20169;-84
2023/12/31 06:28:49;;;;;;;3.00;1.50;;;11.70;99.90;;;;;;7283207;19;20275;-83
2023/12/31 06:31:18;;;;;;;3.07;1.57;;;11.80;99.90;;;;;;7285225;19;20209;-84
2023/12/31 06:33:44;;;;;;;3.63;1.70;;;11.80;99.90;;;;;;7282474;19;20256;-84
2023/12/31 06:36:10;;;;;;;3.70;1.70;;;11.80;99.90;;;;;;7288182;19;20192;-83
2023/12/31 06:38:35;;;;;;;5.10;2.10;;;11.70;99.90;;;;;;7291868;19;20770;-84
2023/12/31 06:41:10;;;;;;;4.30;1.63;;;11.70;99.90;;;;;;7299535;19;20545;-84
2023/12/31 06:43:36;;;;;;;3.33;1.50;;;11.70;99.90;;;;;;7293143;19;20189;-85
2023/12/31 06:46:03;;;;;;;4.17;1.70;;;11.70;99.90;;;;;;7299962;19;20190;-86
2023/12/31 06:48:29;;;;;;;4.03;1.87;;;11.70;99.90;;;;;;7321009;19;20221;-85
2023/12/31 06:50:54;;;;;;;2.33;1.40;;;11.60;99.90;;;;;;7296358;19;20727;-88
2023/12/31 06:53:23;;;;;;;4.67;1.40;;;11.60;99.90;;;;;;7298974;19;20232;-86
2023/12/31 06:55:49;;;;;;;2.20;1.33;;;11.50;99.90;;;;;;7293449;19;20200;-86
2023/12/31 06:58:15;;;;;;;4.10;1.40;;;11.50;99.90;;;;;;7293625;19;20657;-85
2023/12/31 07:00:41;;;;;;;3.87;1.40;;;11.50;99.90;;;;;;7305216;19;20200;-86
2023/12/31 07:03:07;;;;;;;2.20;1.20;;;11.40;99.90;;;;;;7305216;19;20194;-86
2023/12/31 07:05:32;;;;;;;2.80;1.30;;;11.30;99.90;;;;;;7308670;19;20184;-86
2023/12/31 07:07:58;;;;;;;2.47;1.40;;;11.30;99.90;;;;;;7327398;19;20185;-85
2023/12/31 07:10:24;;;;;;;2.10;1.30;;;11.40;99.90;;;;;;7295262;19;20632;-86
2023/12/31 07:12:53;;;;;;;4.17;1.30;;;11.40;99.90;;;;;;7285648;19;20667;-85
2023/12/31 07:15:19;;;;;;;1.93;1.40;;;11.50;99.90;;;;;;7285742;19;20204;-86
2023/12/31 07:17:44;;;;;;;4.27;2.10;;;11.50;99.90;;;;;;7282905;19;20189;-83
2023/12/31 07:20:11;;;;;;;3.17;1.50;;;11.40;99.90;;;;;;7284009;19;20192;-83
2023/12/31 07:22:38;;;;;;;1.80;1.30;;;11.30;99.90;;;;;;7284015;19;20209;-84
2023/12/31 07:25:07;;;;;;;2.40;1.27;;;11.30;99.90;;;;;;7282891;19;20202;-83
2023/12/31 07:27:32;;;;;;;2.43;1.23;;;11.10;99.90;;;;;;7281950;19;20190;-83
2023/12/31 07:29:58;;;;;;;2.77;1.30;;;10.90;99.90;;;;;;7304683;19;20291;-83
2023/12/31 07:32:24;;;;;;;3.43;1.50;;;10.90;99.90;;;;;;7285845;19;20188;-84
2023/12/31 07:34:50;;;;;;;3.43;1.53;;;10.80;99.90;;;;;;7284092;19;20195;-84
2023/12/31 07:37:16;;;;;;;2.60;1.40;;;10.60;99.90;;;;;;7284299;19;20196;-83
2023/12/31 07:39:42;;;;;;;3.83;1.33;;;10.60;99.90;;;;;;7283113;19;20542;-83
2023/12/31 07:42:08;;;;;;;2.67;1.43;;;10.40;99.90;;;;;;7281764;19;20199;-83
2023/12/31 07:44:34;;;;;;;2.40;1.10;;;10.40;99.90;;;;;;7283464;19;20183;-84
2023/12/31 07:47:03;;;;;;;3.70;1.20;;;10.40;99.90;;;;;;7312111;19;20187;-83
2023/12/31 07:49:30;;;;;;;2.83;1.20;;;10.30;99.90;;;;;;7289871;19;20222;-83
2023/12/31 07:51:56;;;;;;;2.70;1.20;;;10.30;99.90;;;;;;7289954;19;20187;-82
2023/12/31 07:54:23;;;;;;;2.27;1.00;;;10.30;99.90;;;;;;7287929;19;20184;-84
2023/12/31 07:56:49;;;;;;;3.80;1.20;;;10.20;99.90;;;;;;7289133;19;20638;-84
2023/12/31 07:59:15;;;;;;;2.53;0.93;;;10.20;99.90;;;;;;7288886;19;20215;-83
2023/12/31 08:01:40;;;;;;;3.17;0.93;;;10.10;99.90;;;;;;7288044;19;20224;-83
2023/12/31 08:04:06;;;;;;;2.50;0.90;;;10.10;99.90;;;;;;7287479;19;20607;-84
2023/12/31 08:06:32;;;;;;;3.27;1.00;;;10.00;99.90;;;;;;7294876;19;20262;-83
2023/12/31 08:08:58;;;;;;;5.20;1.13;;;10.00;99.90;;;;;;7309134;19;20185;-83
2023/12/31 08:11:23;;;;;;;2.83;0.93;;;10.10;99.90;;;;;;7285919;19;20198;-83
2023/12/31 08:13:49;;;;;;;5.00;1.00;;;10.10;99.90;;;;;;7288888;19;20297;-83
2023/12/31 08:16:15;;;;;;;3.50;1.00;;;10.00;99.90;;;;;;7303386;19;20195;-85
2023/12/31 08:18:40;;;;;;;3.57;1.03;;;10.10;99.90;;;;;;7289231;19;20193;-88
2023/12/31 08:21:06;;;;;;;2.83;0.90;;;10.10;99.90;;;;;;7286992;19;20199;-87
2023/12/31 08:23:32;;;;;;;4.40;1.10;;;10.20;99.90;;;;;;7294925;19;20204;-85
2023/12/31 08:25:58;;;;;;;3.53;1.20;;;10.30;99.90;;;;;;7311705;19;20195;-86
2023/12/31 08:28:24;;;;;;;5.30;0.87;;;10.40;99.90;;;;;;7287636;19;20210;-86
2023/12/31 08:30:52;;;;;;;5.10;0.97;;;10.50;99.90;;;;;;7290607;19;20299;-85
2023/12/31 08:33:18;;;;;;;2.43;0.70;;;10.60;99.90;;;;;;7288760;19;20203;-86
2023/12/31 08:35:46;;;;;;;3.87;0.90;;;10.60;99.90;;;;;;7290168;19;21003;-86
2023/12/31 08:38:12;;;;;;;4.30;0.80;;;10.60;99.90;;;;;;7287300;19;20191;-82
2023/12/31 08:40:41;;;;;;;6.80;1.20;;;10.50;99.90;;;;;;7286389;19;20192;-83
2023/12/31 08:43:06;;;;;;;4.63;0.70;;;10.50;99.90;;;;;;7287790;19;20181;-83
2023/12/31 08:45:39;;;;;;;4.53;1.00;;;10.60;99.90;;;;;;7296999;19;20189;-83
2023/12/31 08:48:07;;;;;;;3.73;0.80;;;10.60;99.90;;;;;;7284966;19;20198;-83
2023/12/31 08:50:33;;;;;;;6.53;0.80;;;10.50;99.90;;;;;;7281684;19;20196;-82
2023/12/31 08:52:59;;;;;;;4.03;0.90;;;10.60;99.90;;;;;;7309150;19;20194;-85
2023/12/31 08:55:25;;;;;;;3.73;0.87;;;10.50;99.90;;;;;;7287536;19;20247;-85
2023/12/31 08:57:50;;;;;;;4.23;0.90;;;10.60;99.90;;;;;;7284026;19;25614;-85
2023/12/31 09:00:17;;;;;;;3.83;0.90;;;10.60;99.90;;;;;;7289395;19;20198;-85
2023/12/31 09:02:43;;;;;;;4.17;1.00;;;10.70;99.90;;;;;;7279605;19;20199;-82
2023/12/31 09:05:09;;;;;;;4.40;0.80;;;10.80;99.90;;;;;;7281671;19;20548;-82
2023/12/31 09:07:35;;;;;;;2.57;1.13;;;10.80;99.90;;;;;;7278227;19;20189;-82
2023/12/31 09:10:04;;;;;;;3.77;1.10;;;10.80;99.90;;;;;;7301816;19;20192;-82
2023/12/31 09:12:31;;;;;;;3.17;0.80;;;10.90;99.90;;;;;;7308199;19;20264;-85
2023/12/31 09:14:57;;;;;;;2.93;0.87;;;10.90;99.90;;;;;;7287531;19;20175;-86
2023/12/31 09:17:23;;;;;;;3.47;0.80;;;10.90;99.90;;;;;;7286168;19;20203;-85
2023/12/31 09:19:49;;;;;;;4.23;0.70;;;10.90;99.90;;;;;;7287012;19;20195;-86
2023/12/31 09:22:15;;;;;;;5.00;0.80;;;10.70;99.90;;;;;;7287638;19;20326;-85
2023/12/31 09:24:41;;;;;;;2.67;0.87;;;10.50;99.90;;;;;;7285578;19;20203;-86
2023/12/31 09:27:07;;;;;;;2.90;0.80;;;10.30;99.90;;;;;;7286523;19;20549;-82
2023/12/31 09:29:36;;;;;;;5.43;0.70;;;10.30;99.90;;;;;;7285300;19;20189;-82
2023/12/31 09:32:03;;;;;;;1.60;0.63;;;10.30;99.90;;;;;;7298084;19;20194;-84
2023/12/31 09:34:29;;;;;;;6.27;0.90;;;10.30;99.90;;;;;;7308178;19;20182;-82
2023/12/31 09:36:54;;;;;;;4.20;0.77;;;10.30;99.90;;;;;;7284989;19;20193;-84
2023/12/31 09:39:20;;;;;;;6.60;0.70;;;10.30;99.90;;;;;;7282580;19;20194;-84
2023/12/31 09:41:52;;;;;;;5.37;0.90;;;10.30;99.90;;;;;;7294466;19;20197;-84
2023/12/31 09:44:19;;;;;;;3.97;0.73;;;10.30;99.90;;;;;;7285168;19;21080;-84
2023/12/31 09:47:06;;;;;;;7.13;1.10;;;10.20;99.90;;;;;;7287248;19;20667;-83
2023/12/31 09:49:36;;;;;;;3.90;0.97;;;10.20;99.90;;;;;;7272458;19;20187;-81
2023/12/31 09:52:03;;;;;;;5.20;1.00;;;10.20;99.90;;;;;;7298695;19;20183;-82
2023/12/31 09:54:33;;;;;;;2.80;0.87;;;10.30;99.90;;;;;;7308823;19;20187;-81
2023/12/31 09:57:00;;;;;;;6.10;1.17;;;10.40;99.90;;;;;;7287043;19;20183;-82
2023/12/31 09:59:27;;;;;;;5.43;1.40;;;10.40;99.90;;;;;;7285575;19;20186;-82
2023/12/31 10:01:56;;;;;;;4.00;0.90;;;10.50;99.90;;;;;;7284556;19;20251;-83
2023/12/31 10:04:26;;;;;;;3.27;0.73;;;10.50;99.90;;;;;;7287356;19;20193;-87
2023/12/31 10:06:56;;;;;;;3.17;0.80;;;10.50;99.90;;;;;;7284766;19;20202;-86
2023/12/31 10:09:27;;;;;;;3.57;0.60;;;10.50;99.90;;;;;;7284312;19;20754;-86
2023/12/31 10:11:54;;;;;;;3.20;0.60;;;10.50;99.90;;;;;;7285184;19;20178;-85
2023/12/31 10:14:21;;;;;;;5.90;0.90;;;10.40;99.90;;;;;;7285206;19;20275;-85
2023/12/31 10:16:47;;;;;;;2.70;0.70;;;10.50;99.90;;;;;;7284314;19;20226;-86
2023/12/31 10:19:14;;;;;;;7.97;1.03;;;10.50;99.90;;;;;;7287054;19;20190;-86
2023/12/31 10:21:41;;;;;;;4.20;0.70;;;10.40;99.90;;;;;;7286359;19;20187;-82
2023/12/31 10:24:08;;;;;;;4.00;0.50;;;10.40;99.90;;;;;;7285483;19;20183;-86
2023/12/31 10:26:34;;;;;;;3.83;0.50;;;10.40;99.90;;;;;;7283241;19;20361;-85
2023/12/31 10:29:00;;;;;;;6.33;0.83;;;10.40;99.90;;;;;;7306769;19;20194;-87
2023/12/31 10:31:27;;;;;;;1.90;0.60;;;10.40;99.90;;;;;;7284344;19;20231;-87
2023/12/31 10:33:53;;;;;;;2.50;0.63;;;10.40;99.90;;;;;;7393380;19;20139;-87
2023/12/31 10:36:23;;;;;;;5.47;0.90;;;10.60;99.90;;;;;;7396971;19;20266;-87
2023/12/31 10:38:50;;;;;;;6.33;0.93;;;10.60;99.90;;;;;;7374223;19;20180;-90
2023/12/31 10:41:21;;;;;;;9.67;1.30;;;10.70;99.90;;;;;;7304364;19;20187;-88
2023/12/31 10:43:48;;;;;;;5.63;0.87;;;10.80;99.90;;;;;;7367703;19;20187;-85
2023/12/31 10:46:15;;;;;;;10.63;1.07;;;10.80;99.90;;;;;;7322346;19;20198;-86
2023/12/31 10:48:54;;;;;;;9.27;1.20;;;10.80;99.90;;;;;;7284788;19;20279;-84
2023/12/31 10:51:23;;;;;;;8.57;1.10;;;10.70;99.90;;;;;;7281521;19;20592;-87
2023/12/31 10:53:54;;;;;;;8.60;1.43;;;10.50;99.90;;;;;;7281502;19;20199;-84
2023/12/31 10:56:21;;;;;;;6.43;1.20;;;10.40;99.90;;;;;;7280697;19;21733;-84
2023/12/31 10:58:47;;;;;;;6.73;1.20;;;10.40;99.90;;;;;;7282720;19;20194;-85
2023/12/31 11:01:16;;;;;;;4.07;0.80;;;10.30;99.90;;;;;;7345984;19;20194;-84
2023/12/31 11:03:43;;;;;;;6.20;0.80;;;10.40;99.90;;;;;;7265090;19;20191;-84
2023/12/31 11:06:10;;;;;;;4.13;0.83;;;10.40;99.90;;;;;;7275932;19;20223;-86
2023/12/31 11:08:37;;;;;;;6.33;1.00;;;10.50;99.90;;;;;;7293463;19;20211;-83
2023/12/31 11:11:04;;;;;;;6.07;0.70;;;10.50;99.90;;;;;;7391258;19;20177;-85
2023/12/31 11:13:32;;;;;;;3.80;0.90;;;10.50;99.90;;;;;;7370082;19;20213;-84
2023/12/31 11:16:01;;;;;;;4.10;0.80;;;10.50;99.90;;;;;;7282179;19;20187;-84
2023/12/31 11:19:04;;;;;;;5.13;0.60;;;10.60;99.90;;;;;;7284148;19;20371;-82
2023/12/31 11:21:48;;;;;;;2.33;0.60;;;10.50;99.90;;;;;;7179327;19;2004602;-82
2023/12/31 11:24:18;;;;;;;3.13;0.60;;;10.40;99.90;;;;;;7180715;19;2004445;-81
2023/12/31 11:27:02;;;;;;;4.90;0.80;;;10.50;99.90;;;;;;7282572;19;20195;-81
2023/12/31 11:29:28;;;;;;;2.83;0.80;;;10.40;99.90;;;;;;7282067;19;20195;-82
2023/12/31 11:31:53;;;;;;;6.70;0.80;;;10.80;99.90;;;;;;7282826;19;20554;-81
2023/12/31 11:34:19;;;;;;;6.73;1.60;;;11.30;99.90;;;;;;7282981;19;20198;-81
2023/12/31 11:36:45;;;;;;;8.30;2.07;;;11.80;99.90;;;;;;7281815;19;20211;-82
2023/12/31 11:39:14;;;;;;;7.80;2.30;;;12.40;99.90;;;;;;7281122;19;20204;-83
2023/12/31 11:41:45;;;;;;;9.83;2.17;;;12.80;99.90;;;;;;7281357;19;20301;-83
2023/12/31 11:44:38;;;;;;;11.50;2.53;;;13.60;99.90;;;;;;7281983;19;20261;-80
2023/12/31 11:47:29;;;;;;;10.67;2.50;;;14.10;99.90;;;;;;7256145;19;20305;-80
2023/12/31 11:50:07;;;;;;;8.27;1.90;;;13.80;99.90;;;;;;7277039;19;20269;-80
2023/12/31 11:52:40;;;;;;;12.53;2.37;;;13.30;99.90;;;;;;7260317;19;20637;-80
2023/12/31 11:55:12;;;;;;;8.90;1.77;;;12.40;99.90;;;;;;7274978;19;20186;-80
2023/12/31 11:57:38;;;;;;;9.53;1.93;;;12.20;99.90;;;;;;7276520;19;20200;-81
2023/12/31 12:00:08;;;;;;;12.70;2.20;;;12.00;99.90;;;;;;7277144;19;20185;-85
2023/12/31 12:02:34;;;;;;;11.10;1.90;;;12.10;99.90;;;;;;7276336;19;20185;-84
2023/12/31 12:05:03;;;;;;;12.27;2.00;;;12.00;99.90;;;;;;7298225;19;20194;-83
2023/12/31 12:07:29;;;;;;;14.33;2.40;;;12.00;99.90;;;;;;7277003;19;20264;-84
2023/12/31 12:09:55;;;;;;;11.83;1.90;;;12.10;99.90;;;;;;7276467;19;20181;-84
2023/12/31 12:12:22;;;;;;;11.97;1.90;;;12.20;99.90;;;;;;7276625;19;22438;-84
2023/12/31 12:14:51;;;;;;;15.23;2.40;;;12.20;99.90;;;;;;7277389;19;20185;-85
2023/12/31 12:17:20;;;;;;;16.83;5.60;;;12.10;99.90;;;;;;7275365;19;20192;-83
2023/12/31 12:19:45;;;;;;;16.57;4.53;;;12.00;99.90;;;;;;7276617;19;20188;-84
2023/12/31 12:22:13;;;;;;;13.20;2.50;;;11.80;99.90;;;;;;7275989;19;20207;-83
2023/12/31 12:24:40;;;;;;;19.30;3.80;;;11.70;99.90;;;;;;7276956;19;20324;-83
2023/12/31 12:27:06;;;;;;;13.50;1.90;;;11.60;99.90;;;;;;7275115;19;20185;-83
2023/12/31 12:29:32;;;;;;;13.70;2.57;;;11.70;99.90;;;;;;7286535;19;20204;-83
2023/12/31 12:32:02;;;;;;;12.77;2.27;;;11.70;99.90;;;;;;7295924;19;20192;-84
2023/12/31 12:34:28;;;;;;;14.13;2.50;;;11.60;99.90;;;;;;7282675;19;20191;-84
2023/12/31 12:36:57;;;;;;;13.47;2.50;;;11.50;99.90;;;;;;7288028;19;20199;-84
2023/12/31 12:39:22;;;;;;;15.23;2.27;;;11.60;99.90;;;;;;7284262;19;20284;-84
2023/12/31 12:41:50;;;;;;;19.53;6.10;;;11.50;99.90;;;;;;7281553;19;20286;-84
2023/12/31 12:44:17;;;;;;;15.80;3.70;;;11.70;99.90;;;;;;7282728;19;20652;-84
2023/12/31 12:46:45;;;;;;;15.63;2.90;;;11.80;99.90;;;;;;7284209;19;20186;-84